createdAt,value
2023-01-20T00:02:11.177Z,34.10
2023-01-20T00:04:37.873Z,34.20
2023-01-20T00:07:04.472Z,34.20
2023-01-20T00:09:31.095Z,34.20
2023-01-20T00:11:57.681Z,34.20
2023-01-20T00:14:25.522Z,34.20
2023-01-20T00:16:52.208Z,34.30
2023-01-20T00:19:18.849Z,34.20
2023-01-20T00:21:45.572Z,34.30
2023-01-20T00:24:12.380Z,34.30
2023-01-20T00:26:39.088Z,34.20
2023-01-20T00:29:05.720Z,34.30
2023-01-20T00:31:32.706Z,34.30
2023-01-20T00:34:00.590Z,34.30
2023-01-20T00:36:29.258Z,34.30
2023-01-20T00:38:55.895Z,34.30
2023-01-20T00:41:22.536Z,34.40
2023-01-20T00:43:49.399Z,34.40
2023-01-20T00:46:16.586Z,34.40
2023-01-20T00:48:43.197Z,34.40
2023-01-20T00:51:10.633Z,34.40
2023-01-20T00:53:37.430Z,34.30
2023-01-20T00:56:04.789Z,34.40
2023-01-20T00:58:31.421Z,34.30
2023-01-20T01:00:58.832Z,34.40
2023-01-20T01:03:27.848Z,34.40
2023-01-20T01:05:54.678Z,34.40
2023-01-20T01:08:21.311Z,34.40
2023-01-20T01:10:47.907Z,34.40
2023-01-20T01:13:14.500Z,34.50
2023-01-20T01:15:48.690Z,34.40
2023-01-20T01:18:15.288Z,34.50
2023-01-20T01:20:44.569Z,34.50
2023-01-20T01:23:12.257Z,34.50
2023-01-20T01:25:38.913Z,34.50
2023-01-20T01:28:05.663Z,34.40
2023-01-20T01:30:32.536Z,34.50
2023-01-20T01:32:59.123Z,34.50
2023-01-20T01:35:25.752Z,34.50
2023-01-20T01:37:52.347Z,34.50
2023-01-20T01:40:19.082Z,34.50
2023-01-20T01:42:45.721Z,34.50
2023-01-20T01:45:12.817Z,34.50
2023-01-20T01:47:50.536Z,34.50
2023-01-20T01:50:25.871Z,34.50
2023-01-20T01:52:55.476Z,34.60
2023-01-20T01:55:26.950Z,34.60
2023-01-20T01:57:54.806Z,34.60
2023-01-20T02:00:21.687Z,34.60
2023-01-20T02:02:48.642Z,34.60
2023-01-20T02:05:17.509Z,34.60
2023-01-20T02:07:47.600Z,34.60
2023-01-20T02:10:14.882Z,34.60
2023-01-20T02:13:02.669Z,34.60
2023-01-20T02:15:45.781Z,34.60
2023-01-20T02:18:35.521Z,34.60
2023-01-20T02:21:30.786Z,34.60
2023-01-20T02:24:40.422Z,34.60
2023-01-20T02:27:14.414Z,34.60
2023-01-20T02:30:03.023Z,34.60
2023-01-20T02:32:54.724Z,34.60
2023-01-20T02:35:32.783Z,34.50
2023-01-20T02:38:39.842Z,34.60
2023-01-20T02:41:12.481Z,34.50
2023-01-20T02:44:08.526Z,34.50
2023-01-20T02:46:47.967Z,34.50
2023-01-20T02:49:24.853Z,34.60
2023-01-20T02:51:59.775Z,34.50
2023-01-20T02:54:30.504Z,34.50
2023-01-20T02:56:59.986Z,34.50
2023-01-20T02:59:32.502Z,34.50
2023-01-20T03:02:10.620Z,34.50
2023-01-20T03:04:46.922Z,34.60
2023-01-20T03:07:14.577Z,34.60
2023-01-20T03:09:45.858Z,34.50
2023-01-20T03:12:22.225Z,34.50
2023-01-20T03:14:51.884Z,34.60
2023-01-20T03:17:22.328Z,34.60
2023-01-20T03:19:49.502Z,34.60
2023-01-20T03:22:16.693Z,34.60
2023-01-20T03:24:44.823Z,34.60
2023-01-20T03:27:11.978Z,35.30
2023-01-20T03:29:39.033Z,34.60
2023-01-20T03:32:08.732Z,34.60
2023-01-20T03:34:38.304Z,34.50
2023-01-20T03:37:05.760Z,34.60
2023-01-20T03:39:33.265Z,34.60
2023-01-20T03:42:15.700Z,34.50
2023-01-20T03:45:07.400Z,34.60
2023-01-20T03:47:53.357Z,34.50
2023-01-20T03:51:00.026Z,34.50
2023-01-20T03:54:01.314Z,34.50
2023-01-20T03:56:43.755Z,34.50
2023-01-20T03:59:14.152Z,34.60
2023-01-20T04:01:44.402Z,34.50
2023-01-20T04:04:16.253Z,34.60
2023-01-20T04:06:44.235Z,34.60
2023-01-20T04:09:19.625Z,34.60
2023-01-20T04:11:46.301Z,34.60
2023-01-20T04:14:13.018Z,34.60
2023-01-20T04:16:39.912Z,34.60
2023-01-20T04:19:06.536Z,34.60
2023-01-20T04:21:54.655Z,35.30
2023-01-20T04:24:30.172Z,34.60
2023-01-20T04:26:56.756Z,34.60
2023-01-20T04:29:23.325Z,34.60
2023-01-20T04:31:50.160Z,34.60
2023-01-20T04:34:16.801Z,34.60
2023-01-20T04:36:43.572Z,34.60
2023-01-20T04:39:10.237Z,34.60
2023-01-20T04:41:36.921Z,34.60
2023-01-20T04:44:03.575Z,34.60
2023-01-20T04:46:30.277Z,34.60
2023-01-20T04:48:56.899Z,34.60
2023-01-20T04:51:23.680Z,34.60
2023-01-20T04:53:50.415Z,34.60
2023-01-20T04:56:17.067Z,34.70
2023-01-20T04:58:43.735Z,34.70
2023-01-20T05:01:10.660Z,34.70
2023-01-20T05:03:37.581Z,34.80
2023-01-20T05:06:06.235Z,34.90
2023-01-20T05:08:48.114Z,35.00
2023-01-20T05:11:14.733Z,35.00
2023-01-20T05:13:41.587Z,35.00
2023-01-20T05:16:09.857Z,35.10
2023-01-20T05:18:36.792Z,35.00
2023-01-20T05:21:04.731Z,35.70
2023-01-20T05:23:31.435Z,35.00
2023-01-20T05:25:58.109Z,35.00
2023-01-20T05:28:24.847Z,35.00
2023-01-20T05:30:52.061Z,35.00
2023-01-20T05:33:18.777Z,35.00
2023-01-20T05:35:45.474Z,35.00
2023-01-20T05:38:12.157Z,34.90
2023-01-20T05:40:38.795Z,34.90
2023-01-20T05:43:05.416Z,35.00
2023-01-20T05:45:32.389Z,34.90
2023-01-20T05:47:59.931Z,34.90
2023-01-20T05:50:27.981Z,34.90
2023-01-20T05:52:54.926Z,34.80
2023-01-20T05:55:21.826Z,34.80
2023-01-20T05:57:48.427Z,34.80
2023-01-20T06:00:15.284Z,34.80
2023-01-20T06:02:42.049Z,34.90
2023-01-20T06:05:08.965Z,35.00
2023-01-20T06:07:35.682Z,34.90
2023-01-20T06:10:02.571Z,35.00
2023-01-20T06:12:29.291Z,34.90
2023-01-20T06:14:56.300Z,34.90
2023-01-20T06:17:22.875Z,34.80
2023-01-20T06:19:49.497Z,34.70
2023-01-20T06:22:16.214Z,34.70
2023-01-20T06:24:43.067Z,34.40
2023-01-20T06:27:10.171Z,32.00
2023-01-20T06:29:37.009Z,30.40
2023-01-20T06:32:04.388Z,29.80
2023-01-20T06:34:31.393Z,30.00
2023-01-20T06:36:58.484Z,30.20
2023-01-20T06:39:25.177Z,30.50
2023-01-20T06:41:51.854Z,31.00
2023-01-20T06:44:18.506Z,31.40
2023-01-20T06:46:48.205Z,31.70
2023-01-20T06:49:15.143Z,32.70
2023-01-20T06:51:41.838Z,32.10
2023-01-20T06:54:08.534Z,32.30
2023-01-20T06:56:35.409Z,32.50
2023-01-20T06:59:02.387Z,32.70
2023-01-20T07:01:30.735Z,32.90
2023-01-20T07:03:58.110Z,32.90
2023-01-20T07:06:24.690Z,33.00
2023-01-20T07:08:51.497Z,33.00
2023-01-20T07:11:18.206Z,33.10
2023-01-20T07:13:44.951Z,33.90
2023-01-20T07:16:15.211Z,33.20
2023-01-20T07:18:43.038Z,33.20
2023-01-20T07:21:11.592Z,33.30
2023-01-20T07:23:38.256Z,33.20
2023-01-20T07:26:07.590Z,33.20
2023-01-20T07:28:34.917Z,33.20
2023-01-20T07:31:19.334Z,33.00
2023-01-20T07:33:46.248Z,33.00
2023-01-20T07:36:14.354Z,33.10
2023-01-20T07:38:41.092Z,33.10
2023-01-20T07:41:11.808Z,33.00
2023-01-20T07:43:38.416Z,32.80
2023-01-20T07:46:05.619Z,32.60
2023-01-20T07:48:33.785Z,32.50
2023-01-20T07:51:04.965Z,32.60
2023-01-20T07:53:41.015Z,32.50
2023-01-20T07:56:22.678Z,32.40
2023-01-20T07:58:50.836Z,32.40
2023-01-20T08:01:19.014Z,32.30
2023-01-20T08:03:46.307Z,32.10
2023-01-20T08:06:15.174Z,31.90
2023-01-20T08:08:42.132Z,31.90
2023-01-20T08:11:12.942Z,32.00
2023-01-20T08:13:40.431Z,32.10
2023-01-20T08:16:09.953Z,32.20
2023-01-20T08:18:37.391Z,32.20
2023-01-20T08:21:08.009Z,32.20
2023-01-20T08:23:35.803Z,32.20
2023-01-20T08:26:04.810Z,32.30
2023-01-20T08:28:37.119Z,32.40
2023-01-20T08:31:15.547Z,32.40
2023-01-20T08:33:43.693Z,32.40
2023-01-20T08:36:14.470Z,32.40
2023-01-20T08:38:41.516Z,32.40
2023-01-20T08:41:09.948Z,32.50
2023-01-20T08:43:37.246Z,32.50
2023-01-20T08:46:07.616Z,32.60
2023-01-20T08:48:35.222Z,32.70
2023-01-20T08:51:07.659Z,32.60
2023-01-20T08:53:34.587Z,32.60
2023-01-20T08:56:03.762Z,33.30
2023-01-20T08:58:30.537Z,32.70
2023-01-20T09:00:57.272Z,32.70
2023-01-20T09:03:24.163Z,32.70
2023-01-20T09:05:51.443Z,32.80
2023-01-20T09:08:19.633Z,32.80
2023-01-20T09:10:47.059Z,32.90
2023-01-20T09:13:13.683Z,32.90
2023-01-20T09:15:40.335Z,32.90
2023-01-20T09:18:07.082Z,33.00
2023-01-20T09:20:34.634Z,32.80
2023-01-20T09:23:02.978Z,32.70
2023-01-20T09:25:29.730Z,32.70
2023-01-20T09:27:59.525Z,32.70
2023-01-20T09:30:26.111Z,32.80
2023-01-20T09:32:56.216Z,33.50
2023-01-20T09:35:22.851Z,32.90
2023-01-20T09:38:08.539Z,32.80
2023-01-20T09:40:59.810Z,32.70
2023-01-20T09:43:54.327Z,32.70
2023-01-20T09:46:39.595Z,32.60
2023-01-20T09:49:48.412Z,32.70
2023-01-20T09:52:47.146Z,33.10
2023-01-20T09:55:27.145Z,33.00
2023-01-20T09:58:05.312Z,33.20
2023-01-20T10:00:33.805Z,33.30
2023-01-20T10:03:23.631Z,31.20
2023-01-20T10:05:54.482Z,32.60
2023-01-20T10:08:29.394Z,32.60
2023-01-20T10:11:05.103Z,32.70
2023-01-20T10:13:38.315Z,32.80
2023-01-20T10:16:12.284Z,32.60
2023-01-20T10:18:59.877Z,32.40
2023-01-20T10:21:45.537Z,32.20
2023-01-20T10:24:29.926Z,32.20
2023-01-20T10:27:02.074Z,32.20
2023-01-20T10:29:36.269Z,32.40
2023-01-20T10:32:10.142Z,32.40
2023-01-20T10:34:45.550Z,32.30
2023-01-20T10:37:12.428Z,32.30
2023-01-20T10:39:57.712Z,32.30
2023-01-20T10:42:25.380Z,32.20
2023-01-20T10:44:52.879Z,32.30
2023-01-20T10:47:44.878Z,32.20
2023-01-20T10:50:31.719Z,32.20
2023-01-20T10:52:58.595Z,32.20
2023-01-20T10:55:38.232Z,32.30
2023-01-20T10:58:39.026Z,32.10
2023-01-20T11:01:10.197Z,32.10
2023-01-20T11:03:43.545Z,32.00
2023-01-20T11:06:22.389Z,31.70
2023-01-20T11:08:49.569Z,31.70
2023-01-20T11:11:20.528Z,31.80
2023-01-20T11:13:47.852Z,31.70
2023-01-20T11:16:19.419Z,31.70
2023-01-20T11:18:58.571Z,31.70
2023-01-20T11:21:27.930Z,31.60
2023-01-20T11:23:56.215Z,31.60
2023-01-20T11:26:28.173Z,31.60
2023-01-20T11:29:03.962Z,31.60
2023-01-20T11:31:46.602Z,31.70
2023-01-20T11:34:31.737Z,31.50
2023-01-20T11:37:20.249Z,31.40
2023-01-20T11:39:49.826Z,31.50
2023-01-20T11:42:20.281Z,31.50
2023-01-20T11:45:21.604Z,31.40
2023-01-20T11:48:16.764Z,31.30
2023-01-20T11:51:25.533Z,31.30
2023-01-20T11:54:08.016Z,31.30
2023-01-20T11:56:46.880Z,31.40
2023-01-20T11:59:24.171Z,31.30
2023-01-20T12:01:53.778Z,31.20
2023-01-20T12:04:20.389Z,31.30
2023-01-20T12:07:12.243Z,31.40
2023-01-20T12:09:46.671Z,31.40
2023-01-20T12:12:39.362Z,31.40
2023-01-20T12:15:10.553Z,31.30
2023-01-20T12:17:46.471Z,31.30
2023-01-20T12:20:23.778Z,31.30
2023-01-20T12:23:07.436Z,31.40
2023-01-20T12:26:04.680Z,31.40
2023-01-20T12:28:41.016Z,31.50
2023-01-20T12:31:10.786Z,31.50
2023-01-20T12:33:45.474Z,31.50
2023-01-20T12:36:31.152Z,31.60
2023-01-20T12:39:34.997Z,31.50
2023-01-20T12:42:10.714Z,31.60
2023-01-20T12:44:50.491Z,31.60
2023-01-20T12:47:28.832Z,31.60
2023-01-20T12:50:04.830Z,31.60
2023-01-20T12:52:54.743Z,31.70
2023-01-20T12:55:52.547Z,31.70
2023-01-20T12:58:35.754Z,31.80
2023-01-20T13:01:23.501Z,31.80
2023-01-20T13:04:43.163Z,31.90
2023-01-20T13:07:28.334Z,31.90
2023-01-20T13:10:16.953Z,32.00
2023-01-20T13:13:00.198Z,32.00
2023-01-20T13:15:36.341Z,32.10
2023-01-20T13:18:37.131Z,32.10
2023-01-20T13:21:03.939Z,32.10
2023-01-20T13:23:37.760Z,32.10
2023-01-20T13:26:05.906Z,32.10
2023-01-20T13:28:32.783Z,32.20
2023-01-20T13:31:01.572Z,32.20
2023-01-20T13:33:37.725Z,32.20
2023-01-20T13:36:21.940Z,32.20
2023-01-20T13:38:51.268Z,32.30
2023-01-20T13:41:53.515Z,32.30
2023-01-20T13:44:25.855Z,32.40
2023-01-20T13:46:52.529Z,32.30
2023-01-20T13:49:25.560Z,32.40
2023-01-20T13:51:52.214Z,32.40
2023-01-20T13:54:33.938Z,32.40
2023-01-20T13:57:24.057Z,32.50
2023-01-20T13:59:51.092Z,32.50
2023-01-20T14:02:23.614Z,32.50
2023-01-20T14:04:50.391Z,32.60
2023-01-20T14:07:24.591Z,32.70
2023-01-20T14:09:52.747Z,32.70
2023-01-20T14:12:19.524Z,32.70
2023-01-20T14:14:49.299Z,32.70
2023-01-20T14:17:22.376Z,32.80
2023-01-20T14:19:51.921Z,32.70
2023-01-20T14:22:27.879Z,32.80
2023-01-20T14:25:00.481Z,32.80
2023-01-20T14:27:34.006Z,32.80
2023-01-20T14:30:15.622Z,32.80
2023-01-20T14:32:42.744Z,32.90
2023-01-20T14:35:14.794Z,32.80
2023-01-20T14:37:41.679Z,32.90
2023-01-20T14:40:23.623Z,32.90
2023-01-20T14:43:18.051Z,32.90
2023-01-20T14:45:48.845Z,32.90
2023-01-20T14:48:32.655Z,33.00
2023-01-20T14:51:02.608Z,32.90
2023-01-20T14:53:29.228Z,32.90
2023-01-20T14:56:28.075Z,32.90
2023-01-20T14:58:55.952Z,33.00
2023-01-20T15:01:25.536Z,33.00
2023-01-20T15:04:00.695Z,33.00
2023-01-20T15:06:27.383Z,33.00
2023-01-20T15:09:06.140Z,33.00
2023-01-20T15:11:35.492Z,33.00
2023-01-20T15:14:02.116Z,33.00
2023-01-20T15:16:44.818Z,33.10
2023-01-20T15:19:18.328Z,33.00
2023-01-20T15:21:49.291Z,33.10
2023-01-20T15:24:30.252Z,33.00
2023-01-20T15:26:58.828Z,33.00
2023-01-20T15:29:35.510Z,33.00
2023-01-20T15:32:10.307Z,33.10
2023-01-20T15:34:36.951Z,33.00
2023-01-20T15:37:17.054Z,33.00
2023-01-20T15:39:43.752Z,33.10
2023-01-20T15:42:11.903Z,33.10
2023-01-20T15:44:38.519Z,33.10
2023-01-20T15:47:25.871Z,33.10
2023-01-20T15:49:52.693Z,33.10
2023-01-20T15:52:19.277Z,33.00
2023-01-20T15:54:45.854Z,33.10
2023-01-20T15:57:16.625Z,33.00
2023-01-20T15:59:47.532Z,33.10
2023-01-20T16:02:22.737Z,33.10
2023-01-20T16:04:49.748Z,33.10
2023-01-20T16:07:18.372Z,33.10
2023-01-20T16:09:46.671Z,33.10
2023-01-20T16:12:18.343Z,33.10
2023-01-20T16:14:45.361Z,33.10
2023-01-20T16:17:18.317Z,33.20
2023-01-20T16:19:45.024Z,33.20
2023-01-20T16:22:13.382Z,33.20
2023-01-20T16:24:40.594Z,33.20
2023-01-20T16:27:27.447Z,33.20
2023-01-20T16:29:55.888Z,33.20
2023-01-20T16:32:24.065Z,33.20
2023-01-20T16:34:50.662Z,33.20
2023-01-20T16:37:17.251Z,33.20
2023-01-20T16:39:43.961Z,33.20
2023-01-20T16:42:12.326Z,33.10
2023-01-20T16:44:39.046Z,33.20
2023-01-20T16:47:06.483Z,33.20
2023-01-20T16:49:33.052Z,33.20
2023-01-20T16:51:59.650Z,33.20
2023-01-20T16:54:26.302Z,33.20
2023-01-20T16:56:52.868Z,33.20
2023-01-20T16:59:19.587Z,33.20
2023-01-20T17:01:48.014Z,33.30
2023-01-20T17:04:14.733Z,33.30
2023-01-20T17:06:41.344Z,33.30
2023-01-20T17:09:07.973Z,33.30
2023-01-20T17:11:37.455Z,33.30
2023-01-20T17:14:06.144Z,33.30
2023-01-20T17:16:33.456Z,33.30
2023-01-20T17:19:01.617Z,33.10
2023-01-20T17:21:30.751Z,33.00
2023-01-20T17:24:00.657Z,33.10
2023-01-20T17:26:28.390Z,33.00
2023-01-20T17:28:56.767Z,33.10
2023-01-20T17:31:24.201Z,33.00
2023-01-20T17:33:51.137Z,33.10
2023-01-20T17:36:18.099Z,33.10
2023-01-20T17:38:45.265Z,33.10
2023-01-20T17:41:13.150Z,33.20
2023-01-20T17:43:42.922Z,33.10
2023-01-20T17:46:18.337Z,33.10
2023-01-20T17:48:46.256Z,33.00
2023-01-20T17:51:16.105Z,33.20
2023-01-20T17:53:43.349Z,33.20
2023-01-20T17:56:13.632Z,33.20
2023-01-20T17:58:42.675Z,33.10
2023-01-20T18:01:20.545Z,33.10
2023-01-20T18:03:49.315Z,33.10
2023-01-20T18:06:17.733Z,33.10
2023-01-20T18:08:49.247Z,33.20
2023-01-20T18:11:15.894Z,33.10
2023-01-20T18:13:45.438Z,33.20
2023-01-20T18:16:14.481Z,33.10
2023-01-20T18:18:45.756Z,33.20
2023-01-20T18:21:20.897Z,33.20
2023-01-20T18:23:48.746Z,33.20
2023-01-20T18:26:17.289Z,33.20
2023-01-20T18:28:44.356Z,33.20
2023-01-20T18:31:13.968Z,33.20
2023-01-20T18:33:46.021Z,33.30
2023-01-20T18:36:15.571Z,33.30
2023-01-20T18:38:45.268Z,33.30
2023-01-20T18:41:13.488Z,33.20
2023-01-20T18:43:41.086Z,33.20
2023-01-20T18:46:08.744Z,33.20
2023-01-20T18:48:45.782Z,33.20
2023-01-20T18:51:16.922Z,33.30
2023-01-20T18:53:45.604Z,33.20
2023-01-20T18:56:15.047Z,33.30
2023-01-20T18:58:47.235Z,33.40
2023-01-20T19:01:17.615Z,33.20
2023-01-20T19:03:46.104Z,33.30
2023-01-20T19:06:18.605Z,33.20
2023-01-20T19:08:45.945Z,33.20
2023-01-20T19:11:24.020Z,33.20
2023-01-20T19:13:53.322Z,33.30
2023-01-20T19:16:22.103Z,33.20
2023-01-20T19:18:57.342Z,33.20
2023-01-20T19:21:25.271Z,33.20
2023-01-20T19:23:54.049Z,33.30
2023-01-20T19:26:22.342Z,33.30
2023-01-20T19:29:02.033Z,33.30
2023-01-20T19:31:30.924Z,33.20
2023-01-20T19:33:57.809Z,33.20
2023-01-20T19:36:25.072Z,33.20
2023-01-20T19:38:51.886Z,33.20
2023-01-20T19:41:21.735Z,33.20
2023-01-20T19:43:52.555Z,33.20
2023-01-20T19:46:19.821Z,33.20
2023-01-20T19:48:46.419Z,33.20
2023-01-20T19:51:15.363Z,33.20
2023-01-20T19:53:43.859Z,33.20
2023-01-20T19:56:17.187Z,33.30
2023-01-20T19:58:45.546Z,33.30
2023-01-20T20:01:18.048Z,33.20
2023-01-20T20:03:44.856Z,33.20
2023-01-20T20:06:32.547Z,33.20
2023-01-20T20:09:01.685Z,33.30
2023-01-20T20:11:29.586Z,33.20
2023-01-20T20:13:57.810Z,33.30
2023-01-20T20:16:26.099Z,33.30
2023-01-20T20:18:56.681Z,33.30
2023-01-20T20:21:24.315Z,33.30
2023-01-20T20:23:52.429Z,33.30
2023-01-20T20:26:19.991Z,33.30
2023-01-20T20:28:47.018Z,33.40
2023-01-20T20:31:14.272Z,33.30
2023-01-20T20:33:41.027Z,33.30
2023-01-20T20:36:09.557Z,33.30
2023-01-20T20:38:36.629Z,33.30
2023-01-20T20:41:08.041Z,33.30
2023-01-20T20:43:36.189Z,33.30
2023-01-20T20:46:04.676Z,33.30
2023-01-20T20:48:33.390Z,33.30
2023-01-20T20:51:08.009Z,33.30
2023-01-20T20:53:34.849Z,33.30
2023-01-20T20:56:04.055Z,33.30
2023-01-20T20:58:31.736Z,33.40
2023-01-20T21:01:02.613Z,33.30
2023-01-20T21:03:30.815Z,33.30
2023-01-20T21:05:57.953Z,33.30
2023-01-20T21:08:26.173Z,33.30
2023-01-20T21:10:52.789Z,33.30
2023-01-20T21:13:19.482Z,33.30
2023-01-20T21:16:01.501Z,33.30
2023-01-20T21:18:28.200Z,33.40
2023-01-20T21:20:59.617Z,33.30
2023-01-20T21:23:27.596Z,33.30
2023-01-20T21:25:59.787Z,33.30
2023-01-20T21:28:26.477Z,33.30
2023-01-20T21:30:53.176Z,33.30
2023-01-20T21:33:19.854Z,33.30
2023-01-20T21:35:47.097Z,33.40
2023-01-20T21:38:14.231Z,33.30
2023-01-20T21:40:41.346Z,33.30
2023-01-20T21:43:27.037Z,33.30
2023-01-20T21:45:54.661Z,34.00
2023-01-20T21:48:40.355Z,33.30
2023-01-20T21:51:28.213Z,33.30
2023-01-20T21:53:55.141Z,33.30
2023-01-20T21:56:22.071Z,33.20
2023-01-20T21:58:48.649Z,33.20
2023-01-20T22:01:15.302Z,33.20
2023-01-20T22:03:41.920Z,33.20
2023-01-20T22:06:09.136Z,33.30
2023-01-20T22:08:35.760Z,33.20
2023-01-20T22:11:02.394Z,33.20
2023-01-20T22:13:29.096Z,33.20
2023-01-20T22:15:55.789Z,33.20
2023-01-20T22:18:22.384Z,33.20
2023-01-20T22:20:48.999Z,33.20
2023-01-20T22:23:15.600Z,33.20
2023-01-20T22:25:42.203Z,33.10
2023-01-20T22:28:08.833Z,33.20
2023-01-20T22:30:35.535Z,33.20
2023-01-20T22:33:02.131Z,33.10
2023-01-20T22:35:30.006Z,33.20
2023-01-20T22:37:56.723Z,33.10
2023-01-20T22:40:23.329Z,33.20
2023-01-20T22:42:49.955Z,33.10
2023-01-20T22:45:16.730Z,33.10
2023-01-20T22:47:43.489Z,33.10
2023-01-20T22:50:10.992Z,33.10
2023-01-20T22:52:37.610Z,33.20
2023-01-20T22:55:04.483Z,33.10
2023-01-20T22:57:31.073Z,33.10
2023-01-20T22:59:57.735Z,33.10
2023-01-20T23:02:24.419Z,33.10
2023-01-20T23:04:52.339Z,33.10
2023-01-20T23:07:19.075Z,33.10
2023-01-20T23:09:46.451Z,33.10
2023-01-20T23:12:13.035Z,33.10
2023-01-20T23:14:58.596Z,33.10
2023-01-20T23:17:29.797Z,33.00
2023-01-20T23:19:57.370Z,33.00
2023-01-20T23:22:24.300Z,33.00
2023-01-20T23:24:51.235Z,33.00
2023-01-20T23:27:17.869Z,33.00
2023-01-20T23:29:44.533Z,33.00
2023-01-20T23:32:11.164Z,33.00
2023-01-20T23:34:37.756Z,33.00
2023-01-20T23:37:04.381Z,33.00
2023-01-20T23:39:30.966Z,33.00
2023-01-20T23:41:57.820Z,33.00
2023-01-20T23:44:24.505Z,33.00
2023-01-20T23:46:51.124Z,33.00
2023-01-20T23:49:17.693Z,33.00
2023-01-20T23:51:44.287Z,33.00
2023-01-20T23:54:13.237Z,33.00
2023-01-20T23:56:40.033Z,33.00
2023-01-20T23:59:06.679Z,33.10
